Huvudsida
METAR-TAF:

METAR-TAF

Flygplatser :

Naval Station Rota

Rota, Spanien

latitud: 36-39N, longitud: 006-21W, höjd: 26 m

Aktuellt väderrapport

Denna rapport gjordes för 45 minuter sedan, klockan 12:00 UTC
Vind 9 kt från nord/nordost, varierande mellan nord/nordväst och ost
Temperatur 19°C
Fuktighet 49%
Tryck 1025 hPa
Sikt 10 km eller mer
Få moln på en höjd av 3000 ft

METAR: LERT 261200Z 03009KT 340V080 9999 FEW030 19/08 Q1025 NOSIG

Tid: 14:45 (12:45 UTC)

Väderprognos

Denna rapport gjordes för 1 timme och 45 minuter sedan, klockan 11:00 UTC
Prognos gäller från 26 kl. 12 UTC till 26 kl. 21 UTC
Vind 12 kt från nord
Sikt 10 km eller mer
Inga moln under 1 500 m eller inga cumulonimbus

TAF: LERT 261100Z 2612/2621 01012KT CAVOK

Aktuella väderrapporter och prognoser från 4000 flygplatser (METAR- och TAF-rapporter).

De tillgängliga stationerna syns som gula och röda prickar på kartan.

För musen över prickarna för att se namnen på stationerna.

Klicka sedan för att få väderrapporter och prognoser.

För att ändra kartan: Klicka på de gröna knapparna med ett svart kors på för att zooma in; den gröna knappen med ett streck på för att zooma ut; eller på de gröna pilarna för angränsande kartor.


METAR-TAF: